sensor_id;sensor_type;location;lat;lon;timestamp;pressure;altitude;pressure_sealevel;temperature;humidity
72118;BME280;59992;47.490;8.736;2022-12-29T00:00:36;96492.92;;;3.16;79.63
72118;BME280;59992;47.490;8.736;2022-12-29T00:03:06;96496.83;;;3.20;81.21
72118;BME280;59992;47.490;8.736;2022-12-29T00:05:35;96499.48;;;3.23;82.05
72118;BME280;59992;47.490;8.736;2022-12-29T00:08:05;96507.98;;;3.26;80.80
72118;BME280;59992;47.490;8.736;2022-12-29T00:10:37;96509.50;;;3.31;80.29
72118;BME280;59992;47.490;8.736;2022-12-29T00:13:08;96508.57;;;3.35;79.81
72118;BME280;59992;47.490;8.736;2022-12-29T00:15:55;96507.59;;;3.40;79.90
72118;BME280;59992;47.490;8.736;2022-12-29T00:18:25;96498.23;;;3.44;80.13
72118;BME280;59992;47.490;8.736;2022-12-29T00:20:57;96498.04;;;3.45;80.66
72118;BME280;59992;47.490;8.736;2022-12-29T00:23:45;96486.16;;;3.48;81.17
72118;BME280;59992;47.490;8.736;2022-12-29T00:26:32;96486.43;;;3.49;80.20
72118;BME280;59992;47.490;8.736;2022-12-29T00:29:20;96480.70;;;3.50;80.10
72118;BME280;59992;47.490;8.736;2022-12-29T00:32:10;96485.91;;;3.55;79.02
72118;BME280;59992;47.490;8.736;2022-12-29T00:34:58;96493.44;;;3.59;79.04
72118;BME280;59992;47.490;8.736;2022-12-29T00:37:44;96486.98;;;3.63;78.65
72118;BME280;59992;47.490;8.736;2022-12-29T00:40:35;96491.71;;;3.70;78.59
72118;BME280;59992;47.490;8.736;2022-12-29T00:43:22;96480.44;;;3.73;77.96
72118;BME280;59992;47.490;8.736;2022-12-29T00:46:09;96481.26;;;3.76;77.47
72118;BME280;59992;47.490;8.736;2022-12-29T00:48:40;96487.63;;;3.83;76.82
72118;BME280;59992;47.490;8.736;2022-12-29T00:51:28;96485.95;;;3.94;77.63
72118;BME280;59992;47.490;8.736;2022-12-29T00:53:58;96480.16;;;4.01;76.63
72118;BME280;59992;47.490;8.736;2022-12-29T00:56:27;96484.75;;;4.10;74.95
72118;BME280;59992;47.490;8.736;2022-12-29T00:59:01;96485.58;;;4.20;74.04
72118;BME280;59992;47.490;8.736;2022-12-29T01:01:32;96477.98;;;4.39;71.25
72118;BME280;59992;47.490;8.736;2022-12-29T01:04:02;96475.16;;;4.50;72.92
72118;BME280;59992;47.490;8.736;2022-12-29T01:06:32;96481.48;;;4.59;73.00
72118;BME280;59992;47.490;8.736;2022-12-29T01:09:02;96489.34;;;4.66;75.23
72118;BME280;59992;47.490;8.736;2022-12-29T01:11:49;96489.06;;;4.71;74.72
72118;BME280;59992;47.490;8.736;2022-12-29T01:14:20;96500.42;;;4.74;74.71
72118;BME280;59992;47.490;8.736;2022-12-29T01:16:51;96503.52;;;4.77;74.85
72118;BME280;59992;47.490;8.736;2022-12-29T01:19:21;96504.64;;;4.81;75.35
72118;BME280;59992;47.490;8.736;2022-12-29T01:21:52;96508.46;;;4.85;75.54
72118;BME280;59992;47.490;8.736;2022-12-29T01:24:22;96507.83;;;4.86;76.59
72118;BME280;59992;47.490;8.736;2022-12-29T01:26:54;96503.64;;;4.92;76.55
72118;BME280;59992;47.490;8.736;2022-12-29T01:29:24;96508.37;;;4.95;76.38
72118;BME280;59992;47.490;8.736;2022-12-29T01:31:54;96510.48;;;5.00;75.28
72118;BME280;59992;47.490;8.736;2022-12-29T01:34:24;96518.88;;;5.07;71.76
72118;BME280;59992;47.490;8.736;2022-12-29T01:36:54;96516.17;;;5.13;73.60
72118;BME280;59992;47.490;8.736;2022-12-29T01:39:24;96506.65;;;5.19;71.60
72118;BME280;59992;47.490;8.736;2022-12-29T01:41:53;96505.55;;;5.26;72.84
72118;BME280;59992;47.490;8.736;2022-12-29T01:44:55;96503.53;;;5.33;72.15
72118;BME280;59992;47.490;8.736;2022-12-29T01:47:36;96501.87;;;5.37;72.76
72118;BME280;59992;47.490;8.736;2022-12-29T01:50:11;96505.44;;;5.39;72.56
72118;BME280;59992;47.490;8.736;2022-12-29T01:52:50;96506.97;;;5.40;70.21
72118;BME280;59992;47.490;8.736;2022-12-29T01:55:21;96505.33;;;5.42;66.86
72118;BME280;59992;47.490;8.736;2022-12-29T01:57:52;96499.24;;;5.52;69.54
72118;BME280;59992;47.490;8.736;2022-12-29T02:00:22;96498.38;;;5.56;71.56
72118;BME280;59992;47.490;8.736;2022-12-29T02:02:52;96503.80;;;5.61;71.48
72118;BME280;59992;47.490;8.736;2022-12-29T02:05:27;96496.70;;;5.65;72.66
72118;BME280;59992;47.490;8.736;2022-12-29T02:07:58;96492.98;;;5.66;69.34
72118;BME280;59992;47.490;8.736;2022-12-29T02:10:31;96487.45;;;5.74;68.00
72118;BME280;59992;47.490;8.736;2022-12-29T02:13:02;96484.15;;;5.82;64.85
72118;BME280;59992;47.490;8.736;2022-12-29T02:15:40;96488.80;;;5.96;66.19
72118;BME280;59992;47.490;8.736;2022-12-29T02:18:23;96489.05;;;6.04;65.39
72118;BME280;59992;47.490;8.736;2022-12-29T02:21:18;96482.17;;;6.13;65.31
72118;BME280;59992;47.490;8.736;2022-12-29T02:30:08;96484.71;;;6.32;63.17
72118;BME280;59992;47.490;8.736;2022-12-29T02:32:49;96477.67;;;6.35;64.98
72118;BME280;59992;47.490;8.736;2022-12-29T02:35:28;96474.44;;;6.46;61.86
72118;BME280;59992;47.490;8.736;2022-12-29T02:38:06;96473.87;;;6.56;62.30
72118;BME280;59992;47.490;8.736;2022-12-29T02:40:43;96469.41;;;6.66;62.89
72118;BME280;59992;47.490;8.736;2022-12-29T02:43:23;96461.87;;;6.68;63.92
72118;BME280;59992;47.490;8.736;2022-12-29T02:45:57;96470.24;;;6.78;64.63
72118;BME280;59992;47.490;8.736;2022-12-29T02:48:30;96478.56;;;6.82;65.81
72118;BME280;59992;47.490;8.736;2022-12-29T02:51:06;96480.63;;;6.83;63.13
72118;BME280;59992;47.490;8.736;2022-12-29T02:53:37;96481.29;;;6.89;65.69
72118;BME280;59992;47.490;8.736;2022-12-29T02:56:25;96476.30;;;6.91;65.97
72118;BME280;59992;47.490;8.736;2022-12-29T02:58:55;96477.80;;;6.93;64.88
72118;BME280;59992;47.490;8.736;2022-12-29T03:01:40;96473.11;;;6.95;64.56
72118;BME280;59992;47.490;8.736;2022-12-29T03:04:39;96472.58;;;7.04;65.91
72118;BME280;59992;47.490;8.736;2022-12-29T03:07:19;96476.08;;;7.09;65.78
72118;BME280;59992;47.490;8.736;2022-12-29T03:09:56;96468.70;;;7.09;64.88
72118;BME280;59992;47.490;8.736;2022-12-29T03:12:33;96463.80;;;7.15;65.59
72118;BME280;59992;47.490;8.736;2022-12-29T03:15:26;96463.69;;;7.13;64.30
72118;BME280;59992;47.490;8.736;2022-12-29T03:18:21;96467.02;;;7.17;65.95
72118;BME280;59992;47.490;8.736;2022-12-29T03:20:54;96465.52;;;7.14;64.64
72118;BME280;59992;47.490;8.736;2022-12-29T03:23:27;96463.85;;;7.17;64.33
72118;BME280;59992;47.490;8.736;2022-12-29T03:26:02;96459.08;;;7.22;65.40
72118;BME280;59992;47.490;8.736;2022-12-29T03:28:37;96457.94;;;7.25;65.86
72118;BME280;59992;47.490;8.736;2022-12-29T03:31:09;96454.98;;;7.24;65.21
72118;BME280;59992;47.490;8.736;2022-12-29T03:33:40;96453.13;;;7.22;65.81
72118;BME280;59992;47.490;8.736;2022-12-29T03:36:17;96450.52;;;7.17;65.38
72118;BME280;59992;47.490;8.736;2022-12-29T03:38:52;96448.55;;;7.13;65.15
72118;BME280;59992;47.490;8.736;2022-12-29T03:41:28;96445.65;;;7.12;65.97
72118;BME280;59992;47.490;8.736;2022-12-29T03:43:58;96449.80;;;7.03;66.61
72118;BME280;59992;47.490;8.736;2022-12-29T03:46:27;96446.27;;;7.00;67.17
72118;BME280;59992;47.490;8.736;2022-12-29T03:48:56;96449.67;;;6.98;66.73
72118;BME280;59992;47.490;8.736;2022-12-29T03:51:26;96453.22;;;6.98;66.68
72118;BME280;59992;47.490;8.736;2022-12-29T03:53:56;96451.72;;;7.01;67.58
72118;BME280;59992;47.490;8.736;2022-12-29T03:56:25;96453.42;;;6.98;68.72
72118;BME280;59992;47.490;8.736;2022-12-29T03:58:55;96453.16;;;6.92;67.71
72118;BME280;59992;47.490;8.736;2022-12-29T04:01:25;96453.58;;;6.83;68.08
72118;BME280;59992;47.490;8.736;2022-12-29T04:03:55;96453.06;;;6.77;67.65
72118;BME280;59992;47.490;8.736;2022-12-29T04:06:25;96446.33;;;6.73;68.67
72118;BME280;59992;47.490;8.736;2022-12-29T04:08:55;96444.06;;;6.67;69.46
72118;BME280;59992;47.490;8.736;2022-12-29T04:11:24;96434.88;;;6.58;70.02
72118;BME280;59992;47.490;8.736;2022-12-29T04:13:55;96435.65;;;6.50;70.37
72118;BME280;59992;47.490;8.736;2022-12-29T04:16:24;96432.66;;;6.42;70.04
72118;BME280;59992;47.490;8.736;2022-12-29T04:18:54;96435.45;;;6.37;70.43
72118;BME280;59992;47.490;8.736;2022-12-29T04:21:24;96431.15;;;6.33;69.74
72118;BME280;59992;47.490;8.736;2022-12-29T04:23:54;96435.80;;;6.30;71.24
72118;BME280;59992;47.490;8.736;2022-12-29T04:26:24;96432.04;;;6.27;70.31
72118;BME280;59992;47.490;8.736;2022-12-29T04:28:55;96426.86;;;6.25;70.72
72118;BME280;59992;47.490;8.736;2022-12-29T04:31:25;96428.54;;;6.23;72.19
72118;BME280;59992;47.490;8.736;2022-12-29T04:33:54;96430.73;;;6.21;72.19
72118;BME280;59992;47.490;8.736;2022-12-29T04:36:25;96426.00;;;6.18;71.56
72118;BME280;59992;47.490;8.736;2022-12-29T04:38:55;96425.46;;;6.17;71.86
72118;BME280;59992;47.490;8.736;2022-12-29T04:41:24;96412.61;;;6.15;72.54
72118;BME280;59992;47.490;8.736;2022-12-29T04:43:54;96416.68;;;6.07;73.33
72118;BME280;59992;47.490;8.736;2022-12-29T04:46:24;96415.77;;;5.99;73.46
72118;BME280;59992;47.490;8.736;2022-12-29T04:48:53;96412.76;;;5.91;72.84
72118;BME280;59992;47.490;8.736;2022-12-29T04:51:24;96418.89;;;5.83;72.74
72118;BME280;59992;47.490;8.736;2022-12-29T04:53:53;96420.26;;;5.74;72.27
72118;BME280;59992;47.490;8.736;2022-12-29T04:56:23;96421.79;;;5.67;71.47
72118;BME280;59992;47.490;8.736;2022-12-29T04:58:53;96426.48;;;5.60;71.94
72118;BME280;59992;47.490;8.736;2022-12-29T05:01:22;96429.73;;;5.53;72.55
72118;BME280;59992;47.490;8.736;2022-12-29T05:03:52;96430.17;;;5.46;72.32
72118;BME280;59992;47.490;8.736;2022-12-29T05:06:21;96424.75;;;5.40;72.59
72118;BME280;59992;47.490;8.736;2022-12-29T05:08:51;96421.67;;;5.33;72.85
72118;BME280;59992;47.490;8.736;2022-12-29T05:11:21;96416.59;;;5.26;73.48
72118;BME280;59992;47.490;8.736;2022-12-29T05:13:52;96416.52;;;5.22;72.96
72118;BME280;59992;47.490;8.736;2022-12-29T05:16:22;96413.39;;;5.15;74.57
72118;BME280;59992;47.490;8.736;2022-12-29T05:18:51;96417.73;;;5.10;74.50
72118;BME280;59992;47.490;8.736;2022-12-29T05:21:21;96418.90;;;5.04;73.93
72118;BME280;59992;47.490;8.736;2022-12-29T05:23:51;96421.88;;;5.01;73.97
72118;BME280;59992;47.490;8.736;2022-12-29T05:26:20;96422.25;;;4.99;74.65
72118;BME280;59992;47.490;8.736;2022-12-29T05:28:50;96420.64;;;4.95;74.76
72118;BME280;59992;47.490;8.736;2022-12-29T05:31:20;96424.60;;;4.95;73.95
72118;BME280;59992;47.490;8.736;2022-12-29T05:33:49;96423.40;;;4.95;73.77
72118;BME280;59992;47.490;8.736;2022-12-29T05:36:19;96418.20;;;4.99;74.16
72118;BME280;59992;47.490;8.736;2022-12-29T05:38:49;96418.05;;;5.04;74.55
72118;BME280;59992;47.490;8.736;2022-12-29T05:41:19;96418.77;;;5.07;74.57
72118;BME280;59992;47.490;8.736;2022-12-29T05:43:48;96426.55;;;5.11;74.92
72118;BME280;59992;47.490;8.736;2022-12-29T05:46:19;96425.13;;;5.13;75.39
72118;BME280;59992;47.490;8.736;2022-12-29T05:48:48;96429.17;;;5.18;75.09
72118;BME280;59992;47.490;8.736;2022-12-29T05:51:18;96434.71;;;5.23;74.42
72118;BME280;59992;47.490;8.736;2022-12-29T05:53:48;96425.60;;;5.26;74.16
72118;BME280;59992;47.490;8.736;2022-12-29T05:56:17;96426.40;;;5.38;71.51
72118;BME280;59992;47.490;8.736;2022-12-29T05:58:50;96425.73;;;5.45;71.25
72118;BME280;59992;47.490;8.736;2022-12-29T06:01:20;96439.36;;;5.62;71.91
72118;BME280;59992;47.490;8.736;2022-12-29T06:03:50;96444.33;;;5.69;71.99
72118;BME280;59992;47.490;8.736;2022-12-29T06:06:28;96443.44;;;5.77;70.59
72118;BME280;59992;47.490;8.736;2022-12-29T06:08:59;96441.52;;;5.88;67.53
72118;BME280;59992;47.490;8.736;2022-12-29T06:11:29;96438.52;;;6.04;68.97
72118;BME280;59992;47.490;8.736;2022-12-29T06:13:59;96438.33;;;6.13;70.01
72118;BME280;59992;47.490;8.736;2022-12-29T06:16:29;96433.33;;;6.20;67.26
72118;BME280;59992;47.490;8.736;2022-12-29T06:18:58;96430.89;;;6.32;66.60
72118;BME280;59992;47.490;8.736;2022-12-29T06:21:28;96433.90;;;6.47;67.75
72118;BME280;59992;47.490;8.736;2022-12-29T06:23:58;96438.90;;;6.59;66.54
72118;BME280;59992;47.490;8.736;2022-12-29T06:26:28;96438.67;;;6.71;65.67
72118;BME280;59992;47.490;8.736;2022-12-29T06:28:58;96443.98;;;6.81;67.13
72118;BME280;59992;47.490;8.736;2022-12-29T06:31:27;96444.89;;;6.87;66.97
72118;BME280;59992;47.490;8.736;2022-12-29T06:33:57;96443.34;;;6.95;64.85
72118;BME280;59992;47.490;8.736;2022-12-29T06:36:27;96445.91;;;7.01;64.20
72118;BME280;59992;47.490;8.736;2022-12-29T06:38:56;96444.27;;;7.14;63.33
72118;BME280;59992;47.490;8.736;2022-12-29T06:41:26;96443.48;;;7.35;62.10
72118;BME280;59992;47.490;8.736;2022-12-29T06:43:56;96450.66;;;7.49;64.06
72118;BME280;59992;47.490;8.736;2022-12-29T06:46:25;96441.65;;;7.64;63.01
72118;BME280;59992;47.490;8.736;2022-12-29T06:48:55;96441.61;;;7.76;63.50
72118;BME280;59992;47.490;8.736;2022-12-29T06:51:26;96438.13;;;7.85;63.75
72118;BME280;59992;47.490;8.736;2022-12-29T06:53:55;96438.70;;;7.94;63.05
72118;BME280;59992;47.490;8.736;2022-12-29T06:56:25;96431.66;;;8.00;64.91
72118;BME280;59992;47.490;8.736;2022-12-29T06:58:54;96430.69;;;8.01;64.67
72118;BME280;59992;47.490;8.736;2022-12-29T07:01:25;96423.67;;;8.04;63.67
72118;BME280;59992;47.490;8.736;2022-12-29T07:03:54;96433.55;;;8.08;64.73
72118;BME280;59992;47.490;8.736;2022-12-29T07:06:24;96434.08;;;8.12;63.81
72118;BME280;59992;47.490;8.736;2022-12-29T07:08:54;96438.39;;;8.15;64.08
72118;BME280;59992;47.490;8.736;2022-12-29T07:11:25;96442.44;;;8.22;64.51
72118;BME280;59992;47.490;8.736;2022-12-29T07:13:55;96441.36;;;8.27;63.51
72118;BME280;59992;47.490;8.736;2022-12-29T07:16:24;96436.05;;;8.33;62.60
72118;BME280;59992;47.490;8.736;2022-12-29T07:18:55;96440.55;;;8.40;63.64
72118;BME280;59992;47.490;8.736;2022-12-29T07:21:25;96442.07;;;8.43;64.09
72118;BME280;59992;47.490;8.736;2022-12-29T07:23:54;96439.53;;;8.46;63.17
72118;BME280;59992;47.490;8.736;2022-12-29T07:26:25;96433.91;;;8.48;62.86
72118;BME280;59992;47.490;8.736;2022-12-29T07:28:55;96432.82;;;8.50;63.50
72118;BME280;59992;47.490;8.736;2022-12-29T07:31:24;96434.23;;;8.49;63.14
72118;BME280;59992;47.490;8.736;2022-12-29T07:33:55;96432.92;;;8.51;62.75
72118;BME280;59992;47.490;8.736;2022-12-29T07:36:25;96433.46;;;8.55;63.47
72118;BME280;59992;47.490;8.736;2022-12-29T07:38:55;96433.63;;;8.56;61.63
72118;BME280;59992;47.490;8.736;2022-12-29T07:41:24;96429.52;;;8.60;61.20
72118;BME280;59992;47.490;8.736;2022-12-29T07:43:54;96437.57;;;8.61;60.75
72118;BME280;59992;47.490;8.736;2022-12-29T07:46:24;96429.50;;;8.62;61.12
72118;BME280;59992;47.490;8.736;2022-12-29T07:48:54;96431.29;;;8.65;61.15
72118;BME280;59992;47.490;8.736;2022-12-29T07:51:24;96430.01;;;8.66;61.54
72118;BME280;59992;47.490;8.736;2022-12-29T07:53:54;96434.59;;;8.68;62.93
72118;BME280;59992;47.490;8.736;2022-12-29T07:56:23;96429.69;;;8.60;62.88
72118;BME280;59992;47.490;8.736;2022-12-29T07:58:54;96440.54;;;8.63;61.88
72118;BME280;59992;47.490;8.736;2022-12-29T08:01:24;96435.46;;;8.63;61.09
72118;BME280;59992;47.490;8.736;2022-12-29T08:03:54;96409.87;;;8.66;62.24
72118;BME280;59992;47.490;8.736;2022-12-29T08:06:23;96401.27;;;8.66;60.51
72118;BME280;59992;47.490;8.736;2022-12-29T08:08:53;96406.66;;;8.72;61.44
72118;BME280;59992;47.490;8.736;2022-12-29T08:11:25;96413.28;;;8.75;60.94
72118;BME280;59992;47.490;8.736;2022-12-29T08:13:54;96417.42;;;8.78;62.43
72118;BME280;59992;47.490;8.736;2022-12-29T08:16:25;96431.83;;;8.78;61.67
72118;BME280;59992;47.490;8.736;2022-12-29T08:18:54;96436.06;;;8.79;63.43
72118;BME280;59992;47.490;8.736;2022-12-29T08:21:24;96445.85;;;8.77;62.94
72118;BME280;59992;47.490;8.736;2022-12-29T08:23:54;96450.60;;;8.76;62.31
72118;BME280;59992;47.490;8.736;2022-12-29T08:26:24;96457.30;;;8.75;62.79
72118;BME280;59992;47.490;8.736;2022-12-29T08:28:55;96459.24;;;8.74;63.04
72118;BME280;59992;47.490;8.736;2022-12-29T08:31:25;96454.55;;;8.70;62.93
72118;BME280;59992;47.490;8.736;2022-12-29T08:33:55;96461.77;;;8.64;63.59
72118;BME280;59992;47.490;8.736;2022-12-29T08:36:24;96470.16;;;8.57;64.33
72118;BME280;59992;47.490;8.736;2022-12-29T08:38:55;96466.92;;;8.45;65.13
72118;BME280;59992;47.490;8.736;2022-12-29T08:41:24;96471.59;;;8.34;64.49
72118;BME280;59992;47.490;8.736;2022-12-29T08:43:53;96479.48;;;8.29;64.52
72118;BME280;59992;47.490;8.736;2022-12-29T08:46:23;96475.43;;;8.23;65.26
72118;BME280;59992;47.490;8.736;2022-12-29T08:48:52;96478.08;;;8.16;66.06
72118;BME280;59992;47.490;8.736;2022-12-29T08:51:22;96475.41;;;8.08;66.13
72118;BME280;59992;47.490;8.736;2022-12-29T08:53:52;96474.74;;;8.04;66.23
72118;BME280;59992;47.490;8.736;2022-12-29T08:56:23;96477.66;;;8.04;66.40
72118;BME280;59992;47.490;8.736;2022-12-29T08:58:53;96482.59;;;8.05;66.25
72118;BME280;59992;47.490;8.736;2022-12-29T09:01:23;96482.15;;;8.09;65.93
72118;BME280;59992;47.490;8.736;2022-12-29T09:03:54;96475.81;;;8.12;66.03
72118;BME280;59992;47.490;8.736;2022-12-29T09:06:23;96481.57;;;8.14;66.80
72118;BME280;59992;47.490;8.736;2022-12-29T09:08:54;96484.23;;;8.11;67.77
72118;BME280;59992;47.490;8.736;2022-12-29T09:11:25;96475.32;;;8.07;65.17
72118;BME280;59992;47.490;8.736;2022-12-29T09:13:56;96479.90;;;8.09;64.23
72118;BME280;59992;47.490;8.736;2022-12-29T09:16:25;96493.57;;;8.17;64.16
72118;BME280;59992;47.490;8.736;2022-12-29T09:18:56;96489.17;;;8.30;62.46
72118;BME280;59992;47.490;8.736;2022-12-29T09:21:25;96493.83;;;8.47;63.30
72118;BME280;59992;47.490;8.736;2022-12-29T09:23:56;96495.54;;;8.61;60.57
72118;BME280;59992;47.490;8.736;2022-12-29T09:26:26;96498.02;;;8.80;60.55
72118;BME280;59992;47.490;8.736;2022-12-29T09:28:55;96494.86;;;8.97;62.36
72118;BME280;59992;47.490;8.736;2022-12-29T09:31:25;96496.71;;;9.12;58.14
72118;BME280;59992;47.490;8.736;2022-12-29T09:33:55;96494.48;;;9.28;59.13
72118;BME280;59992;47.490;8.736;2022-12-29T09:36:25;96495.68;;;9.46;57.35
72118;BME280;59992;47.490;8.736;2022-12-29T09:38:55;96498.05;;;9.57;56.84
72118;BME280;59992;47.490;8.736;2022-12-29T09:41:29;96484.95;;;9.66;57.02
72118;BME280;59992;47.490;8.736;2022-12-29T09:44:06;96478.47;;;9.76;58.58
72118;BME280;59992;47.490;8.736;2022-12-29T09:46:45;96479.28;;;9.86;57.30
72118;BME280;59992;47.490;8.736;2022-12-29T09:49:23;96484.21;;;9.98;57.58
72118;BME280;59992;47.490;8.736;2022-12-29T09:51:59;96484.39;;;10.06;57.53
72118;BME280;59992;47.490;8.736;2022-12-29T09:54:41;96491.42;;;10.10;56.74
72118;BME280;59992;47.490;8.736;2022-12-29T09:57:21;96496.75;;;10.11;56.23
72118;BME280;59992;47.490;8.736;2022-12-29T09:59:56;96496.09;;;10.08;55.69
72118;BME280;59992;47.490;8.736;2022-12-29T10:02:40;96485.73;;;10.19;56.02
72118;BME280;59992;47.490;8.736;2022-12-29T10:05:23;96481.08;;;10.22;54.97
72118;BME280;59992;47.490;8.736;2022-12-29T10:08:04;96476.80;;;10.19;53.23
72118;BME280;59992;47.490;8.736;2022-12-29T10:10:40;96476.92;;;10.28;55.93
72118;BME280;59992;47.490;8.736;2022-12-29T10:13:21;96475.65;;;10.36;55.91
72118;BME280;59992;47.490;8.736;2022-12-29T10:16:00;96473.40;;;10.37;52.07
72118;BME280;59992;47.490;8.736;2022-12-29T10:19:03;96475.98;;;10.44;53.58
72118;BME280;59992;47.490;8.736;2022-12-29T10:21:50;96467.45;;;10.38;53.83
72118;BME280;59992;47.490;8.736;2022-12-29T10:24:26;96461.78;;;10.34;53.09
72118;BME280;59992;47.490;8.736;2022-12-29T10:26:58;96448.33;;;10.43;52.97
72118;BME280;59992;47.490;8.736;2022-12-29T10:29:35;96447.52;;;10.50;52.56
72118;BME280;59992;47.490;8.736;2022-12-29T10:32:12;96454.21;;;10.61;52.90
72118;BME280;59992;47.490;8.736;2022-12-29T10:34:47;96454.56;;;10.72;54.31
72118;BME280;59992;47.490;8.736;2022-12-29T10:37:29;96453.58;;;10.72;53.10
72118;BME280;59992;47.490;8.736;2022-12-29T10:40:11;96447.99;;;10.81;53.69
72118;BME280;59992;47.490;8.736;2022-12-29T10:42:44;96435.66;;;10.83;54.68
72118;BME280;59992;47.490;8.736;2022-12-29T10:45:19;96443.13;;;10.87;54.16
72118;BME280;59992;47.490;8.736;2022-12-29T10:47:56;96442.41;;;10.91;54.69
72118;BME280;59992;47.490;8.736;2022-12-29T10:50:28;96439.94;;;10.95;54.72
72118;BME280;59992;47.490;8.736;2022-12-29T10:53:00;96431.15;;;11.02;56.15
72118;BME280;59992;47.490;8.736;2022-12-29T10:55:35;96431.49;;;11.07;55.69
72118;BME280;59992;47.490;8.736;2022-12-29T10:58:09;96434.06;;;11.06;55.04
72118;BME280;59992;47.490;8.736;2022-12-29T11:00:42;96436.52;;;11.10;56.78
72118;BME280;59992;47.490;8.736;2022-12-29T11:03:38;96441.41;;;11.14;55.97
72118;BME280;59992;47.490;8.736;2022-12-29T11:06:12;96436.08;;;11.03;53.07
72118;BME280;59992;47.490;8.736;2022-12-29T11:08:50;96436.86;;;11.05;54.54
72118;BME280;59992;47.490;8.736;2022-12-29T11:11:28;96439.88;;;10.96;53.81
72118;BME280;59992;47.490;8.736;2022-12-29T11:14:09;96450.52;;;11.01;53.54
72118;BME280;59992;47.490;8.736;2022-12-29T11:16:41;96440.80;;;11.05;54.16
72118;BME280;59992;47.490;8.736;2022-12-29T11:19:22;96440.17;;;11.02;54.35
72118;BME280;59992;47.490;8.736;2022-12-29T11:21:53;96434.51;;;11.05;53.54
72118;BME280;59992;47.490;8.736;2022-12-29T11:24:26;96437.21;;;11.11;54.79
72118;BME280;59992;47.490;8.736;2022-12-29T11:27:16;96435.53;;;11.17;54.74
72118;BME280;59992;47.490;8.736;2022-12-29T11:29:55;96437.77;;;11.22;54.50
72118;BME280;59992;47.490;8.736;2022-12-29T11:32:31;96434.27;;;11.30;55.10
72118;BME280;59992;47.490;8.736;2022-12-29T11:35:00;96423.60;;;11.33;54.37
72118;BME280;59992;47.490;8.736;2022-12-29T11:37:57;96433.96;;;11.39;53.88
72118;BME280;59992;47.490;8.736;2022-12-29T11:40:42;96431.64;;;11.33;53.53
72118;BME280;59992;47.490;8.736;2022-12-29T11:43:23;96426.70;;;11.42;55.47
72118;BME280;59992;47.490;8.736;2022-12-29T11:45:55;96421.11;;;11.43;54.86
72118;BME280;59992;47.490;8.736;2022-12-29T11:48:37;96419.88;;;11.41;54.64
72118;BME280;59992;47.490;8.736;2022-12-29T11:51:08;96412.38;;;11.43;55.03
72118;BME280;59992;47.490;8.736;2022-12-29T11:53:44;96406.79;;;11.47;55.10
72118;BME280;59992;47.490;8.736;2022-12-29T11:56:17;96397.81;;;11.41;54.89
72118;BME280;59992;47.490;8.736;2022-12-29T11:58:48;96395.43;;;11.39;55.22
72118;BME280;59992;47.490;8.736;2022-12-29T12:01:21;96398.95;;;11.33;56.69
72118;BME280;59992;47.490;8.736;2022-12-29T12:03:59;96391.23;;;11.34;57.97
72118;BME280;59992;47.490;8.736;2022-12-29T12:06:35;96389.89;;;11.38;58.17
72118;BME280;59992;47.490;8.736;2022-12-29T12:09:14;96392.63;;;11.39;58.99
72118;BME280;59992;47.490;8.736;2022-12-29T12:11:46;96383.84;;;11.40;58.86
72118;BME280;59992;47.490;8.736;2022-12-29T12:14:21;96383.48;;;11.42;59.07
72118;BME280;59992;47.490;8.736;2022-12-29T12:16:55;96381.35;;;11.41;59.01
72118;BME280;59992;47.490;8.736;2022-12-29T12:19:33;96374.34;;;11.37;59.12
72118;BME280;59992;47.490;8.736;2022-12-29T12:22:13;96371.41;;;11.40;59.59
72118;BME280;59992;47.490;8.736;2022-12-29T12:24:49;96365.95;;;11.42;59.35
72118;BME280;59992;47.490;8.736;2022-12-29T12:27:24;96367.49;;;11.46;59.45
72118;BME280;59992;47.490;8.736;2022-12-29T12:30:01;96367.64;;;11.44;59.43
72118;BME280;59992;47.490;8.736;2022-12-29T12:32:39;96363.35;;;11.48;59.51
72118;BME280;59992;47.490;8.736;2022-12-29T12:35:15;96360.25;;;11.50;59.21
72118;BME280;59992;47.490;8.736;2022-12-29T12:38:01;96362.40;;;11.53;59.83
72118;BME280;59992;47.490;8.736;2022-12-29T12:40:53;96356.42;;;11.58;60.08
72118;BME280;59992;47.490;8.736;2022-12-29T12:43:39;96350.20;;;11.55;60.30
72118;BME280;59992;47.490;8.736;2022-12-29T12:46:22;96347.03;;;11.59;60.31
72118;BME280;59992;47.490;8.736;2022-12-29T12:49:11;96350.75;;;11.59;60.41
72118;BME280;59992;47.490;8.736;2022-12-29T12:51:50;96355.07;;;11.59;60.19
72118;BME280;59992;47.490;8.736;2022-12-29T12:54:38;96365.06;;;11.56;60.42
72118;BME280;59992;47.490;8.736;2022-12-29T12:57:20;96357.63;;;11.57;60.45
72118;BME280;59992;47.490;8.736;2022-12-29T13:00:00;96355.29;;;11.57;60.86
72118;BME280;59992;47.490;8.736;2022-12-29T13:02:43;96351.63;;;11.42;60.57
72118;BME280;59992;47.490;8.736;2022-12-29T13:05:40;96345.14;;;11.46;61.17
72118;BME280;59992;47.490;8.736;2022-12-29T13:08:37;96333.54;;;11.48;61.20
72118;BME280;59992;47.490;8.736;2022-12-29T13:11:20;96333.08;;;11.62;61.38
72118;BME280;59992;47.490;8.736;2022-12-29T13:14:12;96328.64;;;11.65;60.89
72118;BME280;59992;47.490;8.736;2022-12-29T13:16:53;96332.70;;;11.70;61.08
72118;BME280;59992;47.490;8.736;2022-12-29T13:19:30;96327.33;;;11.74;61.09
72118;BME280;59992;47.490;8.736;2022-12-29T13:22:08;96324.54;;;11.78;60.93
72118;BME280;59992;47.490;8.736;2022-12-29T13:24:52;96328.02;;;11.77;60.85
72118;BME280;59992;47.490;8.736;2022-12-29T13:27:31;96328.91;;;11.72;61.07
72118;BME280;59992;47.490;8.736;2022-12-29T13:30:05;96323.71;;;11.63;61.39
72118;BME280;59992;47.490;8.736;2022-12-29T13:32:49;96333.91;;;11.68;61.58
72118;BME280;59992;47.490;8.736;2022-12-29T13:35:46;96337.09;;;11.68;61.27
72118;BME280;59992;47.490;8.736;2022-12-29T13:38:23;96338.54;;;11.67;61.25
72118;BME280;59992;47.490;8.736;2022-12-29T13:40:56;96339.38;;;11.62;60.23
72118;BME280;59992;47.490;8.736;2022-12-29T13:43:30;96340.58;;;11.58;60.25
72118;BME280;59992;47.490;8.736;2022-12-29T13:46:06;96342.98;;;11.54;60.82
72118;BME280;59992;47.490;8.736;2022-12-29T13:48:43;96338.92;;;11.49;60.93
72118;BME280;59992;47.490;8.736;2022-12-29T13:51:14;96336.30;;;11.41;61.68